createdAt,value
2022-11-28T00:02:55.434Z,70.20
2022-11-28T00:06:06.332Z,53.20
2022-11-28T00:09:13.416Z,51.80
2022-11-28T00:12:19.584Z,52.90
2022-11-28T00:15:25.724Z,51.90
2022-11-28T00:18:32.558Z,51.50
2022-11-28T00:21:39.061Z,48.40
2022-11-28T00:24:45.273Z,47.30
2022-11-28T00:27:51.545Z,53.10
2022-11-28T00:34:03.050Z,50.60
2022-11-28T00:37:09.020Z,47.60
2022-11-28T00:40:15.367Z,43.80
2022-11-28T00:43:21.449Z,43.00
2022-11-28T00:46:28.549Z,42.90
2022-11-28T00:49:34.656Z,41.90
2022-11-28T00:52:40.840Z,43.00
2022-11-28T00:55:47.225Z,45.30
2022-11-28T00:58:53.791Z,41.50
2022-11-28T01:01:59.907Z,42.50
2022-11-28T01:05:06.598Z,39.30
2022-11-28T01:08:12.891Z,39.60
2022-11-28T01:14:25.063Z,41.30
2022-11-28T01:17:31.188Z,42.90
2022-11-28T01:20:37.250Z,38.40
2022-11-28T01:23:43.324Z,40.90
2022-11-28T01:26:49.557Z,42.90
2022-11-28T01:29:55.836Z,39.60
2022-11-28T01:36:07.969Z,42.10
2022-11-28T01:39:15.926Z,42.60
2022-11-28T01:42:22.973Z,38.20
2022-11-28T01:45:36.227Z,42.40
2022-11-28T01:48:44.832Z,39.90
2022-11-28T01:51:56.053Z,39.90
2022-11-28T01:55:03.513Z,37.50
2022-11-28T01:58:10.778Z,38.40
2022-11-28T02:01:18.029Z,39.70
2022-11-28T02:04:27.152Z,39.10
2022-11-28T02:07:33.573Z,37.60
2022-11-28T02:10:51.537Z,35.40
2022-11-28T02:14:08.523Z,36.50
2022-11-28T02:17:23.779Z,35.20
2022-11-28T02:20:59.115Z,38.10
2022-11-28T02:24:41.385Z,41.60
2022-11-28T02:28:13.876Z,35.80
2022-11-28T02:31:36.623Z,36.40
2022-11-28T02:34:52.296Z,38.40
2022-11-28T02:38:10.542Z,34.90
2022-11-28T02:41:27.132Z,36.10
2022-11-28T02:44:40.073Z,36.00
2022-11-28T02:47:51.381Z,35.00
2022-11-28T02:51:02.623Z,34.10
2022-11-28T02:54:11.811Z,33.20
2022-11-28T02:57:17.873Z,35.10
2022-11-28T03:00:30.761Z,34.70
2022-11-28T03:03:49.933Z,33.90
2022-11-28T03:07:06.720Z,32.00
2022-11-28T03:10:24.736Z,31.70
2022-11-28T03:13:47.603Z,30.00
2022-11-28T03:17:08.726Z,32.80
2022-11-28T03:20:24.914Z,32.90
2022-11-28T03:26:49.474Z,33.70
2022-11-28T03:30:01.910Z,34.70
2022-11-28T03:33:09.780Z,36.70
2022-11-28T03:36:22.697Z,34.20
2022-11-28T03:39:33.436Z,34.70
2022-11-28T03:42:43.829Z,40.20
2022-11-28T03:45:53.564Z,39.00
2022-11-28T03:49:02.221Z,36.70
2022-11-28T03:52:11.651Z,36.40
2022-11-28T03:55:23.564Z,32.80
2022-11-28T03:58:36.150Z,34.10
2022-11-28T04:01:53.849Z,36.00
2022-11-28T04:05:04.752Z,32.90
2022-11-28T04:08:18.589Z,33.40
2022-11-28T04:11:31.003Z,35.40
2022-11-28T04:14:39.764Z,32.50
2022-11-28T04:17:52.307Z,37.40
2022-11-28T04:21:04.724Z,35.90
2022-11-28T04:24:16.346Z,33.40
2022-11-28T04:27:25.446Z,35.30
2022-11-28T04:30:31.599Z,37.20
2022-11-28T04:33:41.058Z,41.70
2022-11-28T04:36:50.825Z,39.40
2022-11-28T04:39:58.119Z,40.40
2022-11-28T04:43:09.810Z,38.80
2022-11-28T04:46:19.462Z,40.90
2022-11-28T04:49:27.707Z,42.40
2022-11-28T04:52:41.611Z,39.40
2022-11-28T04:55:53.464Z,36.40
2022-11-28T04:59:01.618Z,38.00
2022-11-28T05:02:10.032Z,34.30
2022-11-28T05:05:19.384Z,35.30
2022-11-28T05:08:26.534Z,35.20
2022-11-28T05:11:33.266Z,35.80
2022-11-28T05:14:41.123Z,32.90
2022-11-28T05:17:47.904Z,33.10
2022-11-28T05:20:53.896Z,31.40
2022-11-28T05:24:00.217Z,30.20
2022-11-28T05:30:14.181Z,30.90
2022-11-28T05:33:20.228Z,31.30
2022-11-28T05:36:26.647Z,30.70
2022-11-28T05:39:33.141Z,32.60
2022-11-28T05:42:39.485Z,33.20
2022-11-28T05:48:50.889Z,31.80
2022-11-28T05:51:57.027Z,33.10
2022-11-28T05:55:03.247Z,33.60
2022-11-28T05:58:09.852Z,30.80
2022-11-28T06:01:18.360Z,31.60
2022-11-28T06:04:24.589Z,29.10
2022-11-28T06:07:30.825Z,30.90
2022-11-28T06:13:41.867Z,29.30
2022-11-28T06:16:47.885Z,30.40
2022-11-28T06:19:54.126Z,30.00
2022-11-28T06:23:00.143Z,27.70
2022-11-28T06:26:09.885Z,26.70
2022-11-28T06:29:16.303Z,28.80
2022-11-28T06:32:22.470Z,28.40
2022-11-28T06:35:28.696Z,28.40
2022-11-28T06:38:35.327Z,28.50
2022-11-28T06:41:41.597Z,28.60
2022-11-28T06:44:47.671Z,30.40
2022-11-28T06:47:53.838Z,27.20
2022-11-28T06:51:06.068Z,27.90
2022-11-28T06:54:12.678Z,27.80
2022-11-28T06:57:19.129Z,29.80
2022-11-28T07:00:25.487Z,30.30
2022-11-28T07:06:36.773Z,31.70
2022-11-28T07:09:43.192Z,26.00
2022-11-28T07:12:54.207Z,30.00
2022-11-28T07:16:00.302Z,28.30
2022-11-28T07:19:06.996Z,28.40
2022-11-28T07:34:50.326Z,24.80
2022-11-28T07:37:53.992Z,23.60
2022-11-28T07:41:03.667Z,27.00
2022-11-28T07:44:07.279Z,26.10
2022-11-28T07:47:10.715Z,30.40
2022-11-28T07:50:14.078Z,30.90
2022-11-28T07:53:17.687Z,28.10
2022-11-28T07:56:22.254Z,28.30
2022-11-28T07:59:25.723Z,33.10
2022-11-28T08:02:31.732Z,30.50
2022-11-28T08:05:35.213Z,32.20
2022-11-28T08:08:38.709Z,30.20
2022-11-28T08:11:42.588Z,29.20
2022-11-28T08:14:46.190Z,31.20
2022-11-28T08:17:49.693Z,34.10
2022-11-28T08:20:52.961Z,28.50
2022-11-28T08:23:58.944Z,30.30
2022-11-28T08:27:02.373Z,30.70
2022-11-28T08:30:08.816Z,31.70
2022-11-28T08:33:13.239Z,36.00
2022-11-28T08:36:18.611Z,32.00
2022-11-28T08:39:24.955Z,33.20
2022-11-28T08:42:29.676Z,32.00
2022-11-28T08:45:34.429Z,30.50
2022-11-28T08:48:38.627Z,29.70
2022-11-28T08:51:42.137Z,34.10
2022-11-28T08:54:45.846Z,28.40
2022-11-28T08:57:49.444Z,32.20
2022-11-28T09:00:52.880Z,28.40
2022-11-28T09:03:57.003Z,26.90
2022-11-28T09:07:00.512Z,28.70
2022-11-28T09:10:05.948Z,25.20
2022-11-28T09:13:09.816Z,28.20
2022-11-28T09:16:14.334Z,24.90
2022-11-28T09:19:17.833Z,25.20
2022-11-28T09:22:21.265Z,27.30
2022-11-28T09:25:24.781Z,21.40
2022-11-28T09:28:28.318Z,22.70
2022-11-28T09:31:31.825Z,23.30
2022-11-28T09:34:35.239Z,22.20
2022-11-28T09:37:38.573Z,19.30
2022-11-28T09:40:44.498Z,16.90
2022-11-28T09:43:54.545Z,19.60
2022-11-28T09:47:02.155Z,18.60
2022-11-28T09:50:14.769Z,16.90
2022-11-28T09:53:24.454Z,16.50
2022-11-28T09:56:28.833Z,17.10
2022-11-28T09:59:32.577Z,14.60
2022-11-28T10:02:43.416Z,14.90
2022-11-28T10:05:53.470Z,14.80
2022-11-28T10:09:15.390Z,15.30
2022-11-28T10:12:33.035Z,19.40
2022-11-28T10:15:44.417Z,15.70
2022-11-28T10:18:50.772Z,15.20
2022-11-28T10:25:11.214Z,15.40
2022-11-28T10:28:18.147Z,13.20
2022-11-28T10:31:31.830Z,10.70
2022-11-28T10:34:41.358Z,9.70
2022-11-28T10:37:44.978Z,10.50
2022-11-28T10:40:55.863Z,10.30
2022-11-28T10:44:06.628Z,11.00
2022-11-28T10:47:20.263Z,9.60
2022-11-28T10:50:33.124Z,9.90
2022-11-28T10:53:49.309Z,11.10
2022-11-28T11:00:06.317Z,10.70
2022-11-28T11:03:16.572Z,10.30
2022-11-28T11:06:20.078Z,13.00
2022-11-28T11:09:23.580Z,13.50
2022-11-28T11:12:31.281Z,10.80
2022-11-28T11:15:35.631Z,11.80
2022-11-28T11:18:53.949Z,10.90
2022-11-28T11:22:03.810Z,11.10
2022-11-28T11:25:13.951Z,10.50
2022-11-28T11:28:33.740Z,12.90
2022-11-28T11:31:43.940Z,11.00
2022-11-28T11:34:47.884Z,11.20
2022-11-28T11:37:51.747Z,11.20
2022-11-28T11:40:55.366Z,10.20
2022-11-28T11:44:28.720Z,12.60
2022-11-28T11:47:42.620Z,11.40
2022-11-28T11:50:54.435Z,10.60
2022-11-28T11:54:06.070Z,11.10
2022-11-28T11:57:32.002Z,11.60
2022-11-28T12:00:39.924Z,10.40
2022-11-28T12:03:53.298Z,10.10
2022-11-28T12:07:00.553Z,10.90
2022-11-28T12:10:07.313Z,11.50
2022-11-28T12:13:18.697Z,10.40
2022-11-28T12:16:40.875Z,11.70
2022-11-28T12:19:54.358Z,10.70
2022-11-28T12:23:10.840Z,11.00
2022-11-28T12:26:23.266Z,10.20
2022-11-28T12:29:43.539Z,11.10
2022-11-28T12:32:55.052Z,10.10
2022-11-28T12:36:10.565Z,10.10
2022-11-28T12:39:34.855Z,10.70
2022-11-28T12:42:49.651Z,8.90
2022-11-28T12:45:59.795Z,10.90
2022-11-28T12:49:17.906Z,11.40
2022-11-28T12:52:31.507Z,11.00
2022-11-28T12:55:44.967Z,11.50
2022-11-28T12:58:57.696Z,12.20
2022-11-28T13:02:16.025Z,10.60
2022-11-28T13:05:32.637Z,10.20
2022-11-28T13:09:00.223Z,9.30
2022-11-28T13:12:17.349Z,9.60
2022-11-28T13:15:35.690Z,10.60
2022-11-28T13:18:44.602Z,10.60
2022-11-28T13:21:58.614Z,10.20
2022-11-28T13:25:09.934Z,12.10
2022-11-28T13:28:19.997Z,9.60
2022-11-28T13:31:28.988Z,10.10
2022-11-28T13:34:34.271Z,10.80
2022-11-28T13:41:43.253Z,11.80
2022-11-28T13:44:50.405Z,10.10
2022-11-28T13:47:55.747Z,10.90
2022-11-28T13:51:01.974Z,11.30
2022-11-28T13:54:47.406Z,11.60
2022-11-28T13:57:51.867Z,11.10
2022-11-28T14:01:08.599Z,10.80
2022-11-28T14:04:14.312Z,10.90
2022-11-28T14:07:26.166Z,12.70
2022-11-28T14:10:53.749Z,13.20
2022-11-28T14:14:20.599Z,12.90
2022-11-28T14:17:40.177Z,11.90
2022-11-28T14:20:54.019Z,10.80
2022-11-28T14:24:04.382Z,10.70
2022-11-28T14:27:15.734Z,11.00
2022-11-28T14:30:30.641Z,10.70
2022-11-28T14:33:37.014Z,11.20
2022-11-28T14:39:45.448Z,13.20
2022-11-28T14:43:09.014Z,16.20
2022-11-28T14:46:30.765Z,15.40
2022-11-28T14:49:34.447Z,15.70
2022-11-28T14:52:40.561Z,14.70
2022-11-28T14:55:44.412Z,13.00
2022-11-28T14:58:49.583Z,13.30
2022-11-28T15:02:01.836Z,16.80
2022-11-28T15:05:19.706Z,28.90
2022-11-28T15:08:50.341Z,20.80
2022-11-28T15:12:10.801Z,21.70
2022-11-28T15:15:16.938Z,12.10
2022-11-28T15:18:22.243Z,19.50
2022-11-28T15:21:25.651Z,25.50
2022-11-28T15:24:31.591Z,15.80
2022-11-28T15:27:35.501Z,12.90
2022-11-28T15:30:45.368Z,16.20
2022-11-28T15:33:49.637Z,14.20
2022-11-28T15:36:53.984Z,13.70
2022-11-28T15:39:59.056Z,137.00
2022-11-28T15:43:09.485Z,18.00
2022-11-28T15:46:19.429Z,20.30
2022-11-28T15:49:29.427Z,89.60
2022-11-28T15:52:33.018Z,144.70
2022-11-28T15:55:36.525Z,24.90
2022-11-28T15:58:41.267Z,28.40
2022-11-28T16:01:45.102Z,43.20
2022-11-28T16:04:48.918Z,35.20
2022-11-28T16:07:52.585Z,29.50
2022-11-28T16:10:57.218Z,22.00
2022-11-28T16:14:08.281Z,22.70
2022-11-28T16:17:18.994Z,22.90
2022-11-28T16:20:25.351Z,24.20
2022-11-28T16:26:35.495Z,28.90
2022-11-28T16:29:47.024Z,24.60
2022-11-28T16:32:52.138Z,28.40
2022-11-28T16:36:17.193Z,31.40
2022-11-28T16:39:20.737Z,33.40
2022-11-28T16:42:24.327Z,32.00
2022-11-28T16:45:30.666Z,27.30
2022-11-28T16:48:36.741Z,30.30
2022-11-28T16:51:41.133Z,29.80
2022-11-28T16:54:44.570Z,26.80
2022-11-28T16:57:53.769Z,32.40
2022-11-28T17:01:02.079Z,32.90
2022-11-28T17:04:06.013Z,37.60
2022-11-28T17:07:13.174Z,50.20
2022-11-28T17:10:17.092Z,37.60
2022-11-28T17:13:21.396Z,39.90
2022-11-28T17:16:25.974Z,40.60
2022-11-28T17:19:29.298Z,46.60
2022-11-28T17:22:40.787Z,42.60
2022-11-28T17:25:44.636Z,35.70
2022-11-28T17:28:48.092Z,35.00
2022-11-28T17:31:54.582Z,32.00
2022-11-28T17:35:02.775Z,29.50
2022-11-28T17:38:06.217Z,27.20
2022-11-28T17:41:13.541Z,30.50
2022-11-28T17:44:20.861Z,26.00
2022-11-28T17:47:24.148Z,29.40
2022-11-28T17:50:27.861Z,41.00
2022-11-28T17:53:31.310Z,46.00
2022-11-28T17:56:34.754Z,32.30
2022-11-28T17:59:38.067Z,36.30
2022-11-28T18:02:41.629Z,33.70
2022-11-28T18:05:46.516Z,37.60
2022-11-28T18:08:50.593Z,50.80
2022-11-28T18:11:53.984Z,48.80
2022-11-28T18:14:59.150Z,45.40
2022-11-28T18:18:03.813Z,46.90
2022-11-28T18:21:08.478Z,51.70
2022-11-28T18:24:11.866Z,46.40
2022-11-28T18:27:15.280Z,49.60
2022-11-28T18:30:19.301Z,44.40
2022-11-28T18:33:22.608Z,43.10
2022-11-28T18:36:27.069Z,46.90
2022-11-28T18:39:30.841Z,46.40
2022-11-28T18:42:34.156Z,52.20
2022-11-28T18:45:37.573Z,55.60
2022-11-28T18:48:42.986Z,52.40
2022-11-28T18:51:46.369Z,53.60
2022-11-28T18:54:49.804Z,55.30
2022-11-28T18:57:53.164Z,48.00
2022-11-28T19:00:56.756Z,45.50
2022-11-28T19:04:02.076Z,46.60
2022-11-28T19:07:05.557Z,40.40
2022-11-28T19:10:12.033Z,37.90
2022-11-28T19:13:15.668Z,42.60
2022-11-28T19:16:20.808Z,46.00
2022-11-28T19:19:24.345Z,47.80
2022-11-28T19:22:27.752Z,59.90
2022-11-28T19:25:31.970Z,68.10
2022-11-28T19:28:36.969Z,89.00
2022-11-28T19:31:41.300Z,78.70
2022-11-28T19:34:44.821Z,68.30
2022-11-28T19:37:48.137Z,54.20
2022-11-28T19:40:51.561Z,47.60
2022-11-28T19:43:55.285Z,49.50
2022-11-28T19:46:58.811Z,48.40
2022-11-28T19:50:02.145Z,62.10
2022-11-28T19:53:05.632Z,72.60
2022-11-28T19:56:13.199Z,62.90
2022-11-28T19:59:17.595Z,65.00
2022-11-28T20:02:22.818Z,58.70
2022-11-28T20:05:26.333Z,80.60
2022-11-28T20:08:29.798Z,63.90
2022-11-28T20:11:34.852Z,64.20
2022-11-28T20:14:38.277Z,60.10
2022-11-28T20:17:41.837Z,68.40
2022-11-28T20:20:45.334Z,80.90
2022-11-28T20:23:49.822Z,80.40
2022-11-28T20:26:53.464Z,107.40
2022-11-28T20:29:57.069Z,90.60
2022-11-28T20:33:00.498Z,139.90
2022-11-28T20:36:10.223Z,87.20
2022-11-28T20:39:13.728Z,110.90
2022-11-28T20:42:17.522Z,115.50
2022-11-28T20:45:21.026Z,88.60
2022-11-28T20:48:24.418Z,87.10
2022-11-28T20:51:29.835Z,89.50
2022-11-28T20:54:33.194Z,104.00
2022-11-28T20:57:36.569Z,77.30
2022-11-28T21:00:39.891Z,61.60
2022-11-28T21:03:43.409Z,50.60
2022-11-28T21:06:48.527Z,51.70
2022-11-28T21:09:53.477Z,47.70
2022-11-28T21:12:56.942Z,43.90
2022-11-28T21:16:06.639Z,44.20
2022-11-28T21:19:10.395Z,46.80
2022-11-28T21:22:13.676Z,43.60
2022-11-28T21:25:17.187Z,45.90
2022-11-28T21:28:20.488Z,82.40
2022-11-28T21:31:26.148Z,72.60
2022-11-28T21:34:29.643Z,68.00
2022-11-28T21:37:33.247Z,70.70
2022-11-28T21:40:36.646Z,76.90
2022-11-28T21:43:40.148Z,68.90
2022-11-28T21:46:43.883Z,64.00
2022-11-28T21:49:47.268Z,60.90
2022-11-28T21:52:50.802Z,68.80
2022-11-28T21:55:54.869Z,82.10
2022-11-28T21:58:58.268Z,75.20
2022-11-28T22:02:02.664Z,78.60
2022-11-28T22:05:09.547Z,84.70
2022-11-28T22:08:12.974Z,95.50
2022-11-28T22:11:17.063Z,73.50
2022-11-28T22:14:20.487Z,52.60
2022-11-28T22:17:24.498Z,53.20
2022-11-28T22:20:27.891Z,47.90
2022-11-28T22:23:34.521Z,43.60
2022-11-28T22:26:37.957Z,59.80
2022-11-28T22:29:41.374Z,69.60
2022-11-28T22:32:44.872Z,68.10
2022-11-28T22:35:48.217Z,64.90
2022-11-28T22:38:56.097Z,71.70
2022-11-28T22:41:59.726Z,72.80
2022-11-28T22:45:03.758Z,74.00
2022-11-28T22:48:07.997Z,79.40
2022-11-28T22:51:14.136Z,132.60
2022-11-28T22:54:17.549Z,78.00
2022-11-28T22:57:21.025Z,62.80
2022-11-28T23:00:24.463Z,63.60
2022-11-28T23:03:28.132Z,51.50
2022-11-28T23:06:34.169Z,45.80
2022-11-28T23:09:37.461Z,46.60
2022-11-28T23:12:41.446Z,46.20
2022-11-28T23:15:49.740Z,50.60
2022-11-28T23:18:58.255Z,43.60
2022-11-28T23:22:01.808Z,48.80
2022-11-28T23:25:06.529Z,46.90
2022-11-28T23:28:09.909Z,164.70
2022-11-28T23:31:16.022Z,64.50
2022-11-28T23:34:19.348Z,63.30
2022-11-28T23:37:22.773Z,66.70
2022-11-28T23:40:26.376Z,71.10
2022-11-28T23:43:29.879Z,66.20
2022-11-28T23:46:34.037Z,74.20
2022-11-28T23:49:37.509Z,79.90
2022-11-28T23:52:40.893Z,74.10
2022-11-28T23:55:44.396Z,84.50
2022-11-28T23:58:48.608Z,81.00
